createdAt,value
2016-11-29T00:00:34.921Z,0
2016-11-29T00:01:13.708Z,0
2016-11-29T00:01:52.488Z,0
2016-11-29T00:02:31.266Z,0
2016-11-29T00:03:10.046Z,0
2016-11-29T00:03:48.825Z,0
2016-11-29T00:04:27.606Z,0
2016-11-29T00:05:06.381Z,0
2016-11-29T00:05:45.194Z,0
2016-11-29T00:06:23.969Z,0
2016-11-29T00:07:02.754Z,0
2016-11-29T00:07:41.537Z,0
2016-11-29T00:08:20.317Z,0
2016-11-29T00:08:59.101Z,0
2016-11-29T00:09:37.877Z,0
2016-11-29T00:10:16.657Z,0
2016-11-29T00:10:55.435Z,0
2016-11-29T00:11:34.220Z,0
2016-11-29T00:12:12.996Z,0
2016-11-29T00:12:51.778Z,0
2016-11-29T00:13:30.575Z,0
2016-11-29T00:14:09.349Z,0
2016-11-29T00:14:48.128Z,0
2016-11-29T00:15:27.019Z,0
2016-11-29T00:16:05.809Z,0
2016-11-29T00:16:44.595Z,0
2016-11-29T00:17:23.382Z,0
2016-11-29T00:18:02.182Z,0
2016-11-29T00:18:40.960Z,0
2016-11-29T00:19:19.744Z,0
2016-11-29T00:19:58.531Z,0
2016-11-29T00:20:37.310Z,0
2016-11-29T00:21:16.084Z,0
2016-11-29T00:21:54.864Z,0
2016-11-29T00:22:33.644Z,0
2016-11-29T00:23:12.426Z,0
2016-11-29T00:23:51.206Z,0
2016-11-29T00:24:29.987Z,0
2016-11-29T00:25:08.777Z,0
2016-11-29T00:25:47.554Z,0
2016-11-29T00:26:26.333Z,0
2016-11-29T00:27:05.114Z,0
2016-11-29T00:27:43.903Z,0
2016-11-29T00:28:22.683Z,0
2016-11-29T00:29:01.467Z,0
2016-11-29T00:29:40.253Z,0
2016-11-29T00:30:19.044Z,0
2016-11-29T00:30:57.824Z,0
2016-11-29T00:31:36.615Z,0
2016-11-29T00:32:15.465Z,0
2016-11-29T00:32:54.244Z,0
2016-11-29T00:33:33.056Z,0
2016-11-29T00:34:11.831Z,0
2016-11-29T00:34:50.610Z,0
2016-11-29T00:35:29.392Z,0
2016-11-29T00:36:08.171Z,0
2016-11-29T00:36:46.950Z,0
2016-11-29T00:37:25.757Z,0
2016-11-29T00:38:04.532Z,0
2016-11-29T00:38:43.310Z,0
2016-11-29T00:39:22.091Z,0
2016-11-29T00:40:00.902Z,0
2016-11-29T00:40:39.688Z,0
2016-11-29T00:41:18.476Z,0
2016-11-29T00:41:57.254Z,0
2016-11-29T00:42:36.035Z,0
2016-11-29T00:43:14.821Z,0
2016-11-29T00:43:53.635Z,0
2016-11-29T00:44:32.423Z,0
2016-11-29T00:45:11.217Z,0
2016-11-29T00:45:49.996Z,0
2016-11-29T00:46:28.770Z,0
2016-11-29T00:47:07.584Z,0
2016-11-29T00:47:46.373Z,0
2016-11-29T00:48:25.157Z,0
2016-11-29T00:49:03.936Z,0
2016-11-29T00:49:42.715Z,0
2016-11-29T00:50:21.498Z,0
2016-11-29T00:51:00.284Z,0
2016-11-29T00:51:39.065Z,0
2016-11-29T00:52:17.845Z,0
2016-11-29T00:52:56.625Z,0
2016-11-29T00:53:35.410Z,0
2016-11-29T00:54:14.190Z,0
2016-11-29T00:54:52.968Z,0
2016-11-29T00:55:31.752Z,0
2016-11-29T00:56:10.886Z,0
2016-11-29T00:56:49.668Z,0
2016-11-29T00:57:28.454Z,0
2016-11-29T00:58:07.234Z,0
2016-11-29T00:58:46.016Z,0
2016-11-29T00:59:25.149Z,0
2016-11-29T01:00:03.940Z,0
2016-11-29T01:00:42.723Z,0
2016-11-29T01:01:21.503Z,0
2016-11-29T01:02:00.295Z,0
2016-11-29T01:02:39.078Z,0
2016-11-29T01:03:17.859Z,0
2016-11-29T01:03:56.640Z,0
2016-11-29T01:04:35.423Z,0
2016-11-29T01:05:14.207Z,0
2016-11-29T01:05:53.093Z,0
2016-11-29T01:06:31.880Z,0
2016-11-29T01:07:11.016Z,0
2016-11-29T01:07:49.803Z,0
2016-11-29T01:08:28.585Z,0
2016-11-29T01:09:07.370Z,0
2016-11-29T01:09:46.150Z,0
2016-11-29T01:10:24.928Z,0
2016-11-29T01:11:03.710Z,0
2016-11-29T01:11:42.489Z,0
2016-11-29T01:12:21.626Z,0
2016-11-29T01:13:00.766Z,0
2016-11-29T01:13:39.552Z,0
2016-11-29T01:14:18.335Z,0
2016-11-29T01:14:57.148Z,0
2016-11-29T01:15:35.931Z,0
2016-11-29T01:16:14.715Z,0
2016-11-29T01:16:53.497Z,0
2016-11-29T01:17:32.307Z,0
2016-11-29T01:18:11.088Z,0
2016-11-29T01:18:49.869Z,0
2016-11-29T01:19:28.681Z,0
2016-11-29T01:20:07.466Z,0
2016-11-29T01:20:46.249Z,0
2016-11-29T01:21:25.028Z,0
2016-11-29T01:22:03.816Z,0
2016-11-29T01:22:43.002Z,0
2016-11-29T01:23:21.782Z,0
2016-11-29T01:24:00.559Z,0
2016-11-29T01:24:39.343Z,0
2016-11-29T01:25:18.127Z,0
2016-11-29T01:25:56.907Z,0
2016-11-29T01:26:35.686Z,0
2016-11-29T01:27:14.469Z,0
2016-11-29T01:27:53.247Z,0
2016-11-29T01:28:32.029Z,0
2016-11-29T01:29:10.806Z,0
2016-11-29T01:29:49.583Z,0
2016-11-29T01:30:28.369Z,0
2016-11-29T01:31:07.153Z,0
2016-11-29T01:31:45.932Z,0
2016-11-29T01:32:24.710Z,0
2016-11-29T01:33:03.493Z,0
2016-11-29T01:33:42.271Z,0
2016-11-29T01:34:21.052Z,0
2016-11-29T01:34:59.834Z,0
2016-11-29T01:35:38.614Z,0
2016-11-29T01:36:17.395Z,0
2016-11-29T01:36:56.182Z,0
2016-11-29T01:37:34.966Z,0
2016-11-29T01:38:13.742Z,0
2016-11-29T01:38:52.522Z,0
2016-11-29T01:39:31.299Z,0
2016-11-29T01:40:10.079Z,0
2016-11-29T01:40:48.863Z,0
2016-11-29T01:41:27.647Z,0
2016-11-29T01:42:06.427Z,0
2016-11-29T01:42:45.209Z,0
2016-11-29T01:43:23.986Z,0
2016-11-29T01:44:02.763Z,0
2016-11-29T01:44:41.542Z,0
2016-11-29T01:45:20.326Z,0
2016-11-29T01:45:59.105Z,0
2016-11-29T01:46:37.919Z,0
2016-11-29T01:47:17.052Z,0
2016-11-29T01:47:55.829Z,0
2016-11-29T01:48:34.610Z,0
2016-11-29T01:49:13.391Z,0
2016-11-29T01:49:52.172Z,0
2016-11-29T01:50:30.951Z,0
2016-11-29T01:51:09.761Z,0
2016-11-29T01:51:48.543Z,0
2016-11-29T01:52:27.317Z,0
2016-11-29T01:53:06.094Z,0
2016-11-29T01:53:44.869Z,0
2016-11-29T01:54:23.678Z,0
2016-11-29T01:55:02.460Z,0
2016-11-29T01:55:41.237Z,0
2016-11-29T01:56:20.013Z,0
2016-11-29T01:56:58.799Z,0
2016-11-29T01:57:37.583Z,0
2016-11-29T01:58:16.366Z,0
2016-11-29T01:58:55.144Z,0
2016-11-29T01:59:33.923Z,0
2016-11-29T02:00:12.700Z,0
2016-11-29T02:00:51.477Z,0
2016-11-29T02:01:30.257Z,0
2016-11-29T02:02:09.038Z,0
2016-11-29T02:02:47.814Z,0
2016-11-29T02:03:26.594Z,0
2016-11-29T02:04:05.374Z,0
2016-11-29T02:04:44.180Z,0
2016-11-29T02:05:22.958Z,0
2016-11-29T02:06:01.737Z,0
2016-11-29T02:06:40.520Z,0
2016-11-29T02:07:19.300Z,0
2016-11-29T02:07:58.083Z,0
2016-11-29T02:08:36.866Z,0
2016-11-29T02:09:15.654Z,0
2016-11-29T02:09:54.432Z,0
2016-11-29T02:10:33.214Z,0
2016-11-29T02:11:11.997Z,0
2016-11-29T02:11:50.781Z,0
2016-11-29T02:12:29.913Z,0
2016-11-29T02:13:08.689Z,0
2016-11-29T02:13:47.470Z,0
2016-11-29T02:14:26.252Z,0
2016-11-29T02:15:05.385Z,0
2016-11-29T02:15:44.516Z,0
2016-11-29T02:16:23.301Z,0
2016-11-29T02:17:02.093Z,0
2016-11-29T02:17:40.874Z,0
2016-11-29T02:18:19.655Z,0
2016-11-29T02:18:58.434Z,0
2016-11-29T02:19:37.566Z,0
2016-11-29T02:20:16.343Z,0
2016-11-29T02:20:55.127Z,0
2016-11-29T02:21:33.904Z,0
2016-11-29T02:22:12.689Z,0
2016-11-29T02:22:51.472Z,0
2016-11-29T02:23:30.252Z,0
2016-11-29T02:24:09.387Z,0
2016-11-29T02:24:48.181Z,0
2016-11-29T02:25:26.985Z,0
2016-11-29T02:26:05.765Z,0
2016-11-29T02:26:44.546Z,0
2016-11-29T02:27:23.324Z,0
2016-11-29T02:28:02.103Z,0
2016-11-29T02:28:40.901Z,0
2016-11-29T02:29:19.683Z,0
2016-11-29T02:29:58.465Z,0
2016-11-29T02:30:37.264Z,0
2016-11-29T02:31:16.045Z,0
2016-11-29T02:31:54.836Z,0
2016-11-29T02:32:33.616Z,0
2016-11-29T02:33:12.393Z,0
2016-11-29T02:33:51.173Z,0
2016-11-29T02:34:29.955Z,0
2016-11-29T02:35:08.736Z,0
2016-11-29T02:35:47.519Z,0
2016-11-29T02:36:26.652Z,0
2016-11-29T02:37:05.433Z,0
2016-11-29T02:37:44.214Z,0
2016-11-29T02:38:22.993Z,0
2016-11-29T02:39:01.780Z,0
2016-11-29T02:39:40.562Z,0
2016-11-29T02:40:19.343Z,0
2016-11-29T02:40:58.123Z,0
2016-11-29T02:41:37.265Z,0
2016-11-29T02:42:16.049Z,0
2016-11-29T02:42:54.830Z,0
2016-11-29T02:43:33.609Z,0
2016-11-29T02:44:12.388Z,0
2016-11-29T02:44:51.168Z,0
2016-11-29T02:45:29.978Z,0
2016-11-29T02:46:08.763Z,0
2016-11-29T02:46:47.539Z,0
2016-11-29T02:47:26.322Z,0
2016-11-29T02:48:05.105Z,0
2016-11-29T02:48:43.883Z,0
2016-11-29T02:49:22.662Z,0
2016-11-29T02:50:01.440Z,0
2016-11-29T02:50:40.219Z,0
2016-11-29T02:51:18.995Z,0
2016-11-29T02:51:57.770Z,0
2016-11-29T02:52:36.903Z,0
2016-11-29T02:53:15.685Z,0
2016-11-29T02:53:54.490Z,0
2016-11-29T02:54:33.645Z,0
2016-11-29T02:55:12.423Z,0
2016-11-29T02:55:51.198Z,0
2016-11-29T02:56:29.978Z,0
2016-11-29T02:57:08.795Z,0
2016-11-29T02:57:47.571Z,0
2016-11-29T02:58:26.355Z,0
2016-11-29T02:59:05.138Z,0
2016-11-29T02:59:43.918Z,0
2016-11-29T03:00:22.700Z,0
2016-11-29T03:01:01.483Z,0
2016-11-29T03:01:40.261Z,0
2016-11-29T03:02:19.040Z,0
2016-11-29T03:02:57.821Z,0
2016-11-29T03:03:36.598Z,0
2016-11-29T03:04:15.377Z,0
2016-11-29T03:04:54.152Z,0
2016-11-29T03:05:32.932Z,0
2016-11-29T03:06:11.712Z,0
2016-11-29T03:06:50.493Z,0
2016-11-29T03:07:29.271Z,0
2016-11-29T03:08:08.050Z,0
2016-11-29T03:08:46.867Z,0
2016-11-29T03:09:25.648Z,0
2016-11-29T03:10:04.425Z,0
2016-11-29T03:10:43.201Z,0
2016-11-29T03:11:21.976Z,0
2016-11-29T03:12:00.760Z,0
2016-11-29T03:12:39.543Z,0
2016-11-29T03:13:18.330Z,0
2016-11-29T03:13:57.110Z,0
2016-11-29T03:14:35.887Z,0
2016-11-29T03:15:14.673Z,0
2016-11-29T03:15:53.484Z,0
2016-11-29T03:16:32.275Z,0
2016-11-29T03:17:11.056Z,0
2016-11-29T03:17:49.839Z,0
2016-11-29T03:18:28.623Z,0
2016-11-29T03:19:07.762Z,0
2016-11-29T03:19:46.538Z,0
2016-11-29T03:20:25.316Z,0
2016-11-29T03:21:04.093Z,0
2016-11-29T03:21:42.899Z,0
2016-11-29T03:22:21.677Z,0
2016-11-29T03:23:00.455Z,0
2016-11-29T03:23:39.242Z,0
2016-11-29T03:24:18.044Z,0
2016-11-29T03:24:56.827Z,0
2016-11-29T03:25:35.604Z,0
2016-11-29T03:26:14.388Z,0
2016-11-29T03:26:53.165Z,0
2016-11-29T03:27:31.940Z,0
2016-11-29T03:28:10.723Z,0
2016-11-29T03:28:49.507Z,0
2016-11-29T03:29:28.293Z,0
2016-11-29T03:30:07.428Z,0
2016-11-29T03:30:46.211Z,0
2016-11-29T03:31:24.998Z,0
2016-11-29T03:32:03.779Z,0
2016-11-29T03:32:42.557Z,0
2016-11-29T03:33:21.335Z,0
2016-11-29T03:34:00.120Z,0
2016-11-29T03:34:38.915Z,0
2016-11-29T03:35:17.692Z,0
2016-11-29T03:35:56.484Z,0
2016-11-29T03:36:35.265Z,0
2016-11-29T03:37:14.048Z,0
2016-11-29T03:37:52.832Z,0
2016-11-29T03:38:31.967Z,0
2016-11-29T03:39:10.745Z,0
2016-11-29T03:39:49.530Z,0
2016-11-29T03:40:28.307Z,0
2016-11-29T03:41:07.088Z,0
2016-11-29T03:41:45.868Z,0
2016-11-29T03:42:24.650Z,0
2016-11-29T03:43:03.426Z,0
2016-11-29T03:43:42.202Z,0
2016-11-29T03:44:20.980Z,0
2016-11-29T03:44:59.764Z,0
2016-11-29T03:45:38.548Z,0
2016-11-29T03:46:17.333Z,0
2016-11-29T03:46:56.113Z,0
2016-11-29T03:47:34.896Z,0
2016-11-29T03:48:13.679Z,0
2016-11-29T03:48:52.460Z,0
2016-11-29T03:49:31.240Z,0
2016-11-29T03:50:10.373Z,0
2016-11-29T03:50:49.150Z,0
2016-11-29T03:51:27.929Z,0
2016-11-29T03:52:06.707Z,0
2016-11-29T03:52:45.486Z,0
2016-11-29T03:53:24.277Z,0
2016-11-29T03:54:03.060Z,0
2016-11-29T03:54:41.842Z,0
2016-11-29T03:55:20.623Z,0
2016-11-29T03:55:59.406Z,0
2016-11-29T03:56:38.190Z,0
2016-11-29T03:57:16.974Z,0
2016-11-29T03:57:55.752Z,0
2016-11-29T03:58:34.528Z,0
2016-11-29T03:59:13.309Z,0
2016-11-29T03:59:52.087Z,0
2016-11-29T04:00:30.861Z,0
2016-11-29T04:01:09.640Z,0
2016-11-29T04:01:48.428Z,0
2016-11-29T04:02:27.209Z,0
2016-11-29T04:03:05.986Z,0
2016-11-29T04:03:44.765Z,0
2016-11-29T04:04:23.545Z,0
2016-11-29T04:05:02.320Z,0
2016-11-29T04:05:41.100Z,0
2016-11-29T04:06:19.878Z,0
2016-11-29T04:06:58.659Z,0
2016-11-29T04:07:37.471Z,0
2016-11-29T04:08:16.252Z,0
2016-11-29T04:08:55.035Z,0
2016-11-29T04:09:33.853Z,0
2016-11-29T04:10:12.641Z,0
2016-11-29T04:10:51.422Z,0
2016-11-29T04:11:30.200Z,0
2016-11-29T04:12:08.986Z,0
2016-11-29T04:12:47.763Z,0
2016-11-29T04:13:26.553Z,0
2016-11-29T04:14:05.334Z,0
2016-11-29T04:14:44.114Z,0
2016-11-29T04:15:22.896Z,0
2016-11-29T04:16:01.676Z,0
2016-11-29T04:16:40.454Z,0
2016-11-29T04:17:19.235Z,0
2016-11-29T04:17:58.025Z,0
2016-11-29T04:18:36.806Z,0
2016-11-29T04:19:15.585Z,0
2016-11-29T04:19:54.364Z,0
2016-11-29T04:20:33.147Z,0
2016-11-29T04:21:11.930Z,0
2016-11-29T04:21:50.719Z,0
2016-11-29T04:22:29.504Z,0
2016-11-29T04:23:08.288Z,0
2016-11-29T04:23:47.066Z,0
2016-11-29T04:24:25.953Z,0
2016-11-29T04:25:04.733Z,0
2016-11-29T04:25:43.512Z,0
2016-11-29T04:26:22.292Z,0
2016-11-29T04:27:01.428Z,0
2016-11-29T04:27:40.209Z,0
2016-11-29T04:28:18.990Z,0
2016-11-29T04:28:57.773Z,0
2016-11-29T04:29:36.547Z,0
2016-11-29T04:30:15.336Z,0
2016-11-29T04:30:54.117Z,0
2016-11-29T04:31:32.894Z,0
2016-11-29T04:32:11.678Z,0
2016-11-29T04:32:50.461Z,0
2016-11-29T04:33:29.238Z,0
2016-11-29T04:34:08.020Z,0
2016-11-29T04:34:46.808Z,0
2016-11-29T04:35:25.589Z,0
2016-11-29T04:36:04.370Z,0
2016-11-29T04:36:43.147Z,0
2016-11-29T04:37:21.926Z,0
2016-11-29T04:38:00.741Z,0
2016-11-29T04:38:39.518Z,0
2016-11-29T04:39:18.301Z,0
2016-11-29T04:39:57.083Z,0
2016-11-29T04:40:35.864Z,0
2016-11-29T04:41:14.644Z,0
2016-11-29T04:41:53.420Z,0
2016-11-29T04:42:32.201Z,0
2016-11-29T04:43:11.008Z,0
2016-11-29T04:43:49.787Z,0
2016-11-29T04:44:28.563Z,0
2016-11-29T04:45:07.352Z,0
2016-11-29T04:45:46.141Z,0
2016-11-29T04:46:24.925Z,0
2016-11-29T04:47:03.712Z,0
2016-11-29T04:47:42.850Z,0
2016-11-29T04:48:21.664Z,0
2016-11-29T04:49:00.488Z,0
2016-11-29T04:49:39.268Z,0
2016-11-29T04:50:18.044Z,0
2016-11-29T04:50:56.822Z,0
2016-11-29T04:51:35.604Z,0
2016-11-29T04:52:14.381Z,0
2016-11-29T04:52:53.157Z,0
2016-11-29T04:53:31.932Z,0
2016-11-29T04:54:10.737Z,0
2016-11-29T04:54:49.520Z,0
2016-11-29T04:55:28.299Z,0
2016-11-29T04:56:07.078Z,0
2016-11-29T04:56:45.889Z,0
2016-11-29T04:57:24.666Z,0
2016-11-29T04:58:03.448Z,0
2016-11-29T04:58:42.225Z,0
2016-11-29T04:59:21.004Z,0
2016-11-29T04:59:59.780Z,0
2016-11-29T05:00:38.566Z,0
2016-11-29T05:01:17.344Z,0
2016-11-29T05:01:56.122Z,0
2016-11-29T05:02:34.902Z,0
2016-11-29T05:03:13.688Z,0
2016-11-29T05:03:52.473Z,0
2016-11-29T05:04:31.248Z,0
2016-11-29T05:05:10.025Z,0
2016-11-29T05:05:48.809Z,0
2016-11-29T05:06:27.588Z,0
2016-11-29T05:07:06.368Z,0
2016-11-29T05:07:45.190Z,0
2016-11-29T05:08:23.970Z,0
2016-11-29T05:09:02.751Z,0
2016-11-29T05:09:41.558Z,0
2016-11-29T05:10:20.342Z,0
2016-11-29T05:10:59.125Z,0
2016-11-29T05:11:37.900Z,0
2016-11-29T05:12:16.683Z,0
2016-11-29T05:12:55.459Z,0
2016-11-29T05:13:34.240Z,0
2016-11-29T05:14:13.049Z,0
2016-11-29T05:14:51.829Z,0
2016-11-29T05:15:30.609Z,0
2016-11-29T05:16:09.393Z,0
2016-11-29T05:16:48.175Z,0
2016-11-29T05:17:26.952Z,0
2016-11-29T05:18:05.733Z,0
2016-11-29T05:18:44.511Z,0
2016-11-29T05:19:23.293Z,0
2016-11-29T05:20:02.071Z,0
2016-11-29T05:20:40.848Z,0
2016-11-29T05:21:19.631Z,0
2016-11-29T05:21:58.415Z,0
2016-11-29T05:22:37.197Z,0
2016-11-29T05:23:15.980Z,0
2016-11-29T05:23:54.758Z,0
2016-11-29T05:24:33.538Z,0
2016-11-29T05:25:12.315Z,0
2016-11-29T05:25:51.093Z,0
2016-11-29T05:26:29.870Z,0
2016-11-29T05:27:08.647Z,0
2016-11-29T05:27:47.432Z,0
2016-11-29T05:28:26.236Z,0
2016-11-29T05:29:05.019Z,0
2016-11-29T05:29:43.796Z,0
2016-11-29T05:30:22.577Z,0
2016-11-29T05:31:01.358Z,0
2016-11-29T05:31:40.141Z,0
2016-11-29T05:32:18.917Z,0
2016-11-29T05:32:57.699Z,0
2016-11-29T05:33:36.477Z,0
2016-11-29T05:34:15.269Z,0
2016-11-29T05:34:54.049Z,0
2016-11-29T05:35:32.832Z,0
2016-11-29T05:36:11.612Z,0
2016-11-29T05:36:50.391Z,0
2016-11-29T05:37:29.171Z,0
2016-11-29T05:38:07.950Z,0
2016-11-29T05:38:46.731Z,0
2016-11-29T05:39:25.516Z,0
2016-11-29T05:40:04.299Z,0
2016-11-29T05:40:43.076Z,0
2016-11-29T05:41:21.865Z,0
2016-11-29T05:42:00.646Z,0
2016-11-29T05:42:39.423Z,0
2016-11-29T05:43:18.205Z,0
2016-11-29T05:43:56.984Z,0
2016-11-29T05:44:35.768Z,0
2016-11-29T05:45:14.552Z,0
2016-11-29T05:45:53.348Z,0
2016-11-29T05:46:32.128Z,0
2016-11-29T05:47:10.910Z,0
2016-11-29T05:47:49.686Z,0
2016-11-29T05:48:28.469Z,0
2016-11-29T05:49:07.251Z,0
2016-11-29T05:49:46.034Z,0
2016-11-29T05:50:24.809Z,0
2016-11-29T05:51:03.588Z,0
2016-11-29T05:51:42.368Z,0
2016-11-29T05:52:21.151Z,0
2016-11-29T05:52:59.970Z,0
2016-11-29T05:53:38.752Z,0
2016-11-29T05:54:17.529Z,0
2016-11-29T05:54:56.312Z,0
2016-11-29T05:55:35.087Z,0
2016-11-29T05:56:13.875Z,0
2016-11-29T05:56:52.656Z,0
2016-11-29T05:57:31.441Z,0
2016-11-29T05:58:10.225Z,0
2016-11-29T05:58:49.001Z,0
2016-11-29T05:59:27.785Z,0
2016-11-29T06:00:06.571Z,0
2016-11-29T06:00:45.365Z,0
2016-11-29T06:01:24.142Z,0
2016-11-29T06:02:02.927Z,0
2016-11-29T06:02:41.710Z,0
2016-11-29T06:03:20.507Z,0
2016-11-29T06:03:59.289Z,0
2016-11-29T06:04:38.073Z,0
2016-11-29T06:05:16.848Z,0
2016-11-29T06:05:55.628Z,0
2016-11-29T06:06:34.410Z,0
2016-11-29T06:07:13.196Z,0
2016-11-29T06:07:51.985Z,0
2016-11-29T06:08:30.769Z,0
2016-11-29T06:09:09.556Z,0
2016-11-29T06:09:48.335Z,0
2016-11-29T06:10:27.114Z,0
2016-11-29T06:11:05.892Z,0
2016-11-29T06:11:44.668Z,0
2016-11-29T06:12:23.452Z,0
2016-11-29T06:13:02.232Z,0
2016-11-29T06:13:41.014Z,0
2016-11-29T06:14:19.796Z,0
2016-11-29T06:14:58.587Z,0
2016-11-29T06:15:37.363Z,0
2016-11-29T06:16:16.142Z,0
2016-11-29T06:16:54.919Z,0
2016-11-29T06:17:33.724Z,0
2016-11-29T06:18:12.503Z,0
2016-11-29T06:18:51.285Z,0
2016-11-29T06:19:30.061Z,0
2016-11-29T06:20:08.842Z,0
2016-11-29T06:20:47.621Z,0
2016-11-29T06:21:26.755Z,0
2016-11-29T06:22:05.544Z,0
2016-11-29T06:22:44.331Z,0
2016-11-29T06:23:23.464Z,0
2016-11-29T06:24:02.241Z,0
2016-11-29T06:24:41.022Z,0
2016-11-29T06:25:19.804Z,0
2016-11-29T06:25:58.587Z,0
2016-11-29T06:26:37.363Z,0
2016-11-29T06:27:16.143Z,0
2016-11-29T06:27:54.919Z,0
2016-11-29T06:28:33.705Z,0
2016-11-29T06:29:12.482Z,0
2016-11-29T06:29:51.262Z,0
2016-11-29T06:30:30.042Z,0
2016-11-29T06:31:08.820Z,0
2016-11-29T06:31:47.622Z,0
2016-11-29T06:32:26.404Z,0
2016-11-29T06:33:05.183Z,0
2016-11-29T06:33:43.991Z,0
2016-11-29T06:34:22.768Z,0
2016-11-29T06:35:01.548Z,0
2016-11-29T06:35:40.329Z,0
2016-11-29T06:36:19.107Z,0
2016-11-29T06:36:57.888Z,0
2016-11-29T06:37:36.665Z,0
2016-11-29T06:38:15.447Z,0
2016-11-29T06:38:54.224Z,0
2016-11-29T06:39:33.002Z,0
2016-11-29T06:40:11.778Z,0
2016-11-29T06:40:50.911Z,0
2016-11-29T06:41:29.694Z,0
2016-11-29T06:42:08.476Z,0
2016-11-29T06:42:47.256Z,0
2016-11-29T06:43:26.035Z,0
2016-11-29T06:44:04.813Z,0
2016-11-29T06:44:43.599Z,0
2016-11-29T06:45:22.377Z,0
2016-11-29T06:46:01.158Z,0
2016-11-29T06:46:39.933Z,0
2016-11-29T06:47:18.716Z,0
2016-11-29T06:47:57.503Z,0
2016-11-29T06:48:36.280Z,0
2016-11-29T06:49:15.063Z,0
2016-11-29T06:49:53.845Z,0
2016-11-29T06:50:32.628Z,0
2016-11-29T06:51:11.437Z,0
2016-11-29T06:51:50.213Z,0
2016-11-29T06:52:29.002Z,0
2016-11-29T06:53:07.779Z,0
2016-11-29T06:53:46.593Z,0
2016-11-29T06:54:25.376Z,0
2016-11-29T06:55:04.159Z,0
2016-11-29T06:55:42.940Z,0
2016-11-29T06:56:21.720Z,0
2016-11-29T06:57:00.888Z,0
2016-11-29T06:57:39.667Z,0
2016-11-29T06:58:18.454Z,0
2016-11-29T06:58:57.234Z,0
2016-11-29T06:59:36.010Z,0
2016-11-29T07:00:14.788Z,0
2016-11-29T07:00:53.568Z,0
2016-11-29T07:01:32.346Z,5
2016-11-29T07:02:11.131Z,5
2016-11-29T07:02:49.910Z,5
2016-11-29T07:03:28.687Z,5
2016-11-29T07:04:07.467Z,5
2016-11-29T07:04:46.242Z,5
2016-11-29T07:05:25.021Z,5
2016-11-29T07:06:03.805Z,5
2016-11-29T07:06:42.593Z,5
2016-11-29T07:07:21.375Z,5
2016-11-29T07:08:00.151Z,5
2016-11-29T07:08:38.929Z,5
2016-11-29T07:09:17.705Z,10
2016-11-29T07:09:56.500Z,10
2016-11-29T07:10:35.280Z,10
2016-11-29T07:11:14.061Z,10
2016-11-29T07:11:52.838Z,10
2016-11-29T07:12:32.006Z,10
2016-11-29T07:13:10.788Z,10
2016-11-29T07:13:49.568Z,10
2016-11-29T07:14:28.351Z,10
2016-11-29T07:15:07.127Z,15
2016-11-29T07:15:45.903Z,15
2016-11-29T07:16:24.681Z,15
2016-11-29T07:17:03.816Z,15
2016-11-29T07:17:42.597Z,15
2016-11-29T07:18:21.383Z,15
2016-11-29T07:19:00.173Z,15
2016-11-29T07:19:38.952Z,20
2016-11-29T07:20:17.733Z,20
2016-11-29T07:20:56.513Z,20
2016-11-29T07:21:35.323Z,20
2016-11-29T07:22:14.102Z,20
2016-11-29T07:22:52.883Z,20
2016-11-29T07:23:31.691Z,25
2016-11-29T07:24:10.470Z,25
2016-11-29T07:24:49.251Z,25
2016-11-29T07:25:28.032Z,25
2016-11-29T07:26:06.811Z,25
2016-11-29T07:26:45.595Z,30
2016-11-29T07:27:24.370Z,30
2016-11-29T07:28:03.525Z,30
2016-11-29T07:28:42.306Z,30
2016-11-29T07:29:21.086Z,30
2016-11-29T07:29:59.896Z,35
2016-11-29T07:30:38.701Z,35
2016-11-29T07:31:17.479Z,35
2016-11-29T07:31:56.260Z,35
2016-11-29T07:32:35.050Z,40
2016-11-29T07:33:13.840Z,40
2016-11-29T07:33:52.623Z,40
2016-11-29T07:34:31.403Z,40
2016-11-29T07:35:10.180Z,40
2016-11-29T07:35:48.958Z,45
2016-11-29T07:36:27.737Z,45
2016-11-29T07:37:06.591Z,45
2016-11-29T07:37:45.369Z,45
2016-11-29T07:38:24.147Z,50
2016-11-29T07:39:02.931Z,50
2016-11-29T07:39:41.715Z,55
2016-11-29T07:40:20.494Z,70
2016-11-29T07:40:59.282Z,75
2016-11-29T07:41:38.059Z,80
2016-11-29T07:42:16.838Z,75
2016-11-29T07:42:55.631Z,65
2016-11-29T07:43:34.412Z,65
2016-11-29T07:44:13.192Z,80
2016-11-29T07:44:51.979Z,100
2016-11-29T07:45:30.758Z,130
2016-11-29T07:46:09.536Z,160
2016-11-29T07:46:48.316Z,175
2016-11-29T07:47:27.098Z,175
2016-11-29T07:48:05.877Z,175
2016-11-29T07:48:44.661Z,175
2016-11-29T07:49:23.441Z,180
2016-11-29T07:50:02.223Z,185
2016-11-29T07:50:41.010Z,185
2016-11-29T07:51:19.811Z,190
2016-11-29T07:51:58.976Z,205
2016-11-29T07:52:37.759Z,200
2016-11-29T07:53:16.538Z,210
2016-11-29T07:53:55.324Z,220
2016-11-29T07:54:34.099Z,225
2016-11-29T07:55:13.232Z,230
2016-11-29T07:55:52.018Z,220
2016-11-29T07:56:30.801Z,225
2016-11-29T07:57:09.581Z,220
2016-11-29T07:57:48.382Z,225
2016-11-29T07:58:27.165Z,230
2016-11-29T07:59:05.947Z,230
2016-11-29T07:59:44.757Z,235
2016-11-29T08:00:23.546Z,245
2016-11-29T08:01:02.332Z,250
2016-11-29T08:01:41.129Z,260
2016-11-29T08:02:19.912Z,240
2016-11-29T08:02:58.698Z,290
2016-11-29T08:03:37.477Z,300
2016-11-29T08:04:16.263Z,305
2016-11-29T08:04:55.040Z,300
2016-11-29T08:05:33.815Z,290
2016-11-29T08:06:12.596Z,295
2016-11-29T08:06:51.375Z,300
2016-11-29T08:07:30.157Z,325
2016-11-29T08:08:08.939Z,320
2016-11-29T08:08:47.718Z,325
2016-11-29T08:09:26.499Z,320
2016-11-29T08:10:05.277Z,315
2016-11-29T08:10:44.060Z,325
2016-11-29T08:11:22.841Z,340
2016-11-29T08:12:01.622Z,360
2016-11-29T08:12:40.403Z,370
2016-11-29T08:13:19.185Z,370
2016-11-29T08:13:57.966Z,370
2016-11-29T08:14:36.779Z,385
2016-11-29T08:15:15.559Z,385
2016-11-29T08:15:54.338Z,380
2016-11-29T08:16:33.124Z,385
2016-11-29T08:17:11.915Z,400
2016-11-29T08:17:50.702Z,420
2016-11-29T08:18:29.515Z,440
2016-11-29T08:19:08.296Z,445
2016-11-29T08:19:47.077Z,440
2016-11-29T08:20:26.211Z,460
2016-11-29T08:21:05.073Z,470
2016-11-29T08:21:43.859Z,485
2016-11-29T08:22:22.666Z,485
2016-11-29T08:23:01.448Z,500
2016-11-29T08:23:40.267Z,520
2016-11-29T08:24:19.442Z,555
2016-11-29T08:24:58.575Z,580
2016-11-29T08:25:37.370Z,600
2016-11-29T08:26:16.159Z,620
2016-11-29T08:26:54.948Z,660
2016-11-29T08:27:33.726Z,700
2016-11-29T08:28:12.507Z,755
2016-11-29T08:28:51.290Z,785
2016-11-29T08:29:30.072Z,805
2016-11-29T08:30:08.859Z,830
2016-11-29T08:30:47.944Z,850
2016-11-29T08:31:26.725Z,875
2016-11-29T08:32:05.513Z,895
2016-11-29T08:32:44.300Z,905
2016-11-29T08:33:23.117Z,915
2016-11-29T08:34:01.906Z,935
2016-11-29T08:34:40.696Z,970
2016-11-29T08:35:19.491Z,995
2016-11-29T08:35:58.280Z,1005
2016-11-29T08:36:37.069Z,1005
2016-11-29T08:37:15.885Z,1010
2016-11-29T08:37:54.701Z,995
2016-11-29T08:38:33.483Z,1000
2016-11-29T08:39:12.623Z,995
2016-11-29T08:39:51.424Z,1030
2016-11-29T08:40:30.216Z,1050
2016-11-29T08:41:09.003Z,1080
2016-11-29T08:41:47.786Z,1105
2016-11-29T08:42:26.928Z,1085
2016-11-29T08:43:05.743Z,1055
2016-11-29T08:43:44.531Z,1050
2016-11-29T08:44:23.319Z,1055
2016-11-29T08:45:02.104Z,1085
2016-11-29T08:45:40.891Z,1080
2016-11-29T08:46:19.679Z,1075
2016-11-29T08:46:58.817Z,1100
2016-11-29T08:47:37.607Z,1105
2016-11-29T08:48:16.392Z,1120
2016-11-29T08:48:55.185Z,1120
2016-11-29T08:49:33.970Z,1140
2016-11-29T08:50:12.758Z,1135
2016-11-29T08:50:51.555Z,1160
2016-11-29T08:51:30.368Z,1200
2016-11-29T08:52:09.158Z,1225
2016-11-29T08:52:47.943Z,1230
2016-11-29T08:53:26.731Z,1240
2016-11-29T08:54:05.521Z,1235
2016-11-29T08:54:44.309Z,1250
2016-11-29T08:55:23.098Z,1260
2016-11-29T08:56:01.888Z,1230
2016-11-29T08:56:40.707Z,1200
2016-11-29T08:57:19.500Z,1170
2016-11-29T08:57:58.287Z,1155
2016-11-29T08:58:37.075Z,1140
2016-11-29T08:59:15.870Z,1150
2016-11-29T08:59:54.658Z,1115
2016-11-29T09:00:33.449Z,1100
2016-11-29T09:01:12.243Z,1090
2016-11-29T09:01:51.035Z,1070
2016-11-29T09:02:29.824Z,1045
2016-11-29T09:03:08.637Z,1055
2016-11-29T09:03:47.457Z,1050
2016-11-29T09:04:26.245Z,1045
2016-11-29T09:05:05.038Z,1045
2016-11-29T09:05:43.827Z,1045
2016-11-29T09:06:22.646Z,1050
2016-11-29T09:07:01.434Z,1060
2016-11-29T09:07:40.219Z,1070
2016-11-29T09:08:19.013Z,1075
2016-11-29T09:08:57.804Z,1090
2016-11-29T09:09:36.588Z,1100
2016-11-29T09:10:15.384Z,1115
2016-11-29T09:10:54.176Z,1120
2016-11-29T09:11:32.961Z,1125
2016-11-29T09:12:11.753Z,1150
2016-11-29T09:12:50.540Z,1170
2016-11-29T09:13:29.334Z,1160
2016-11-29T09:14:08.119Z,1165
2016-11-29T09:14:46.902Z,1165
2016-11-29T09:15:25.694Z,1180
2016-11-29T09:16:04.506Z,1195
2016-11-29T09:16:43.294Z,1200
2016-11-29T09:17:22.083Z,1170
2016-11-29T09:18:00.891Z,1170
2016-11-29T09:18:39.680Z,1165
2016-11-29T09:19:18.466Z,1175
2016-11-29T09:19:57.255Z,1175
2016-11-29T09:20:36.044Z,1170
2016-11-29T09:21:14.830Z,1195
2016-11-29T09:21:53.622Z,1230
2016-11-29T09:22:32.413Z,1220
2016-11-29T09:23:11.199Z,1195
2016-11-29T09:23:49.986Z,1195